Time;durP1;ratioP1;P1;durP2;ratioP2;P2;SDS_P1;SDS_P2;PMS_P1;PMS_P2;Temp;Humidity;BMP_temperature;BMP_pressure;BME280_temperature;BME280_humidity;BME280_pressure;Samples;Min_cycle;Max_cycle;Signal;HPM_P1;HPM_P2
2022/06/06 00:00:20;;;;;;;56.95;27.77;;;;;;;;;;5012790;28;20212;-63
2022/06/06 00:02:45;;;;;;;55.00;29.50;;;;;;;;;;5012216;28;20224;-62
2022/06/06 00:05:12;;;;;;;54.85;29.45;;;;;;;;;;5011263;28;20228;-63
2022/06/06 00:07:37;;;;;;;59.25;30.27;;;;;;;;;;5012850;28;20247;-63
2022/06/06 00:10:03;;;;;;;58.65;31.23;;;;;;;;;;5012832;28;20239;-63
2022/06/06 00:12:28;;;;;;;58.22;30.38;;;;;;;;;;5011883;28;20350;-63
2022/06/06 00:14:53;;;;;;;62.30;32.03;;;;;;;;;;5012969;28;20212;-63
2022/06/06 00:17:19;;;;;;;55.53;30.02;;;;;;;;;;5012314;28;20687;-63
2022/06/06 00:19:44;;;;;;;50.83;27.77;;;;;;;;;;5012076;28;20219;-63
2022/06/06 00:22:09;;;;;;;50.33;28.65;;;;;;;;;;5011670;28;20656;-63
2022/06/06 00:24:35;;;;;;;54.20;29.77;;;;;;;;;;5012582;28;20231;-62
2022/06/06 00:27:01;;;;;;;48.30;29.80;;;;;;;;;;5011547;28;20214;-63
2022/06/06 00:29:27;;;;;;;54.03;31.00;;;;;;;;;;5011587;28;20587;-63
2022/06/06 00:37:21;;;;;;;50.70;29.42;;;;;;;;;;5012205;28;20306;-63
2022/06/06 00:39:46;;;;;;;48.05;28.77;;;;;;;;;;5011884;28;20779;-63
2022/06/06 00:42:13;;;;;;;45.70;28.25;;;;;;;;;;5011456;28;20288;-63
2022/06/06 00:44:39;;;;;;;49.03;28.67;;;;;;;;;;5012167;28;20221;-63
2022/06/06 00:47:08;;;;;;;42.35;26.95;;;;;;;;;;5011058;28;20227;-63
2022/06/06 00:49:34;;;;;;;46.42;28.30;;;;;;;;;;5011313;28;20423;-62
2022/06/06 00:52:00;;;;;;;43.05;26.80;;;;;;;;;;5010870;28;20216;-63
2022/06/06 00:54:25;;;;;;;44.15;26.38;;;;;;;;;;5009797;28;20225;-63
2022/06/06 00:56:52;;;;;;;41.95;24.55;;;;;;;;;;5011813;28;20311;-63
2022/06/06 00:59:19;;;;;;;38.33;23.80;;;;;;;;;;5010489;28;20251;-62
2022/06/06 01:01:45;;;;;;;38.53;24.10;;;;;;;;;;5009699;28;20766;-63
2022/06/06 01:04:11;;;;;;;37.42;23.83;;;;;;;;;;5011724;28;20315;-62
2022/06/06 01:06:38;;;;;;;37.90;23.08;;;;;;;;;;5010910;28;20226;-63
2022/06/06 01:09:03;;;;;;;32.90;20.83;;;;;;;;;;5009632;28;20212;-63
2022/06/06 01:11:29;;;;;;;37.10;22.42;;;;;;;;;;5011702;28;20211;-63
2022/06/06 01:13:54;;;;;;;30.42;20.75;;;;;;;;;;5011298;28;20220;-63
2022/06/06 01:16:29;;;;;;;34.85;21.45;;;;;;;;;;5009057;28;20248;-63
2022/06/06 01:18:55;;;;;;;35.83;21.35;;;;;;;;;;5027297;28;20210;-63
2022/06/06 01:21:27;;;;;;;30.67;19.48;;;;;;;;;;5011684;28;20651;-63
2022/06/06 01:24:04;;;;;;;31.05;18.75;;;;;;;;;;5009755;28;20278;-63
2022/06/06 01:26:43;;;;;;;32.70;19.17;;;;;;;;;;5010038;28;20220;-63
2022/06/06 01:29:11;;;;;;;32.13;19.48;;;;;;;;;;5025631;28;20746;-63
2022/06/06 01:31:44;;;;;;;33.55;19.17;;;;;;;;;;5010311;28;20208;-63
2022/06/06 01:34:11;;;;;;;31.50;18.98;;;;;;;;;;5010597;28;20676;-63
2022/06/06 01:36:36;;;;;;;30.75;18.90;;;;;;;;;;5010712;28;20212;-63
2022/06/06 01:39:03;;;;;;;32.88;19.08;;;;;;;;;;5011049;28;20254;-63
2022/06/06 01:41:33;;;;;;;38.28;19.80;;;;;;;;;;5010222;28;20208;-63
2022/06/06 01:44:02;;;;;;;30.45;18.77;;;;;;;;;;5008204;28;20247;-63
2022/06/06 01:46:28;;;;;;;28.48;18.73;;;;;;;;;;5011464;28;20213;-63
2022/06/06 01:48:54;;;;;;;30.58;18.48;;;;;;;;;;5011783;28;20220;-63
2022/06/06 01:51:21;;;;;;;30.60;18.77;;;;;;;;;;5008853;28;20221;-63
2022/06/06 01:53:46;;;;;;;31.55;18.48;;;;;;;;;;5009719;28;20303;-63
2022/06/06 01:56:13;;;;;;;25.38;16.48;;;;;;;;;;5010798;28;20299;-63
2022/06/06 01:58:38;;;;;;;28.13;17.15;;;;;;;;;;5010615;28;20235;-62
2022/06/06 02:01:04;;;;;;;25.15;15.98;;;;;;;;;;5011254;28;20220;-63
2022/06/06 02:03:30;;;;;;;27.38;16.33;;;;;;;;;;5011143;28;20209;-63
2022/06/06 02:05:55;;;;;;;27.17;17.25;;;;;;;;;;5010649;28;20211;-63
2022/06/06 02:08:21;;;;;;;28.75;17.15;;;;;;;;;;5010924;28;20220;-63
2022/06/06 02:10:46;;;;;;;27.60;16.92;;;;;;;;;;5010315;28;20224;-63
2022/06/06 02:13:11;;;;;;;26.48;16.30;;;;;;;;;;5002211;28;20620;-62
2022/06/06 02:15:37;;;;;;;24.75;16.08;;;;;;;;;;5011427;28;20266;-63
2022/06/06 02:18:03;;;;;;;28.33;17.02;;;;;;;;;;5010171;28;20663;-63
2022/06/06 02:20:29;;;;;;;28.67;17.02;;;;;;;;;;5011207;28;20208;-63
2022/06/06 02:22:54;;;;;;;29.67;17.15;;;;;;;;;;5010575;28;20216;-63
2022/06/06 02:25:20;;;;;;;29.73;16.80;;;;;;;;;;5009499;28;20236;-63
2022/06/06 02:27:45;;;;;;;29.65;17.23;;;;;;;;;;5013684;28;20223;-63
2022/06/06 02:30:13;;;;;;;26.92;16.73;;;;;;;;;;5014744;28;20241;-63
2022/06/06 02:32:39;;;;;;;30.08;16.58;;;;;;;;;;5013869;28;20278;-62
2022/06/06 02:35:05;;;;;;;26.75;16.92;;;;;;;;;;5014403;28;20299;-62
2022/06/06 02:37:31;;;;;;;29.08;18.42;;;;;;;;;;5014672;28;20287;-63
2022/06/06 02:39:56;;;;;;;32.05;17.63;;;;;;;;;;5013709;28;20236;-63
2022/06/06 02:42:21;;;;;;;30.10;18.30;;;;;;;;;;4996529;28;20572;-63
2022/06/06 02:44:48;;;;;;;30.65;18.70;;;;;;;;;;4986459;28;20228;-63
2022/06/06 02:47:13;;;;;;;38.85;20.42;;;;;;;;;;4988874;28;20217;-62
2022/06/06 02:49:38;;;;;;;41.25;20.45;;;;;;;;;;4986178;28;20264;-63
2022/06/06 02:52:04;;;;;;;38.17;20.42;;;;;;;;;;5001513;28;20248;-62
2022/06/06 02:54:29;;;;;;;37.05;20.63;;;;;;;;;;4983683;28;20731;-63
2022/06/06 02:56:56;;;;;;;37.85;22.25;;;;;;;;;;4979097;28;20236;-63
2022/06/06 02:59:21;;;;;;;38.60;23.23;;;;;;;;;;4986796;28;20220;-63
2022/06/06 03:01:46;;;;;;;42.90;24.33;;;;;;;;;;5010871;28;20616;-63
2022/06/06 03:04:12;;;;;;;39.15;22.95;;;;;;;;;;4985120;28;20723;-63
2022/06/06 03:06:43;;;;;;;43.63;23.80;;;;;;;;;;4992024;28;20256;-62
2022/06/06 03:09:25;;;;;;;41.75;23.63;;;;;;;;;;4993735;28;20570;-62
2022/06/06 03:11:55;;;;;;;40.97;23.27;;;;;;;;;;5000757;28;20267;-63
2022/06/06 03:14:24;;;;;;;43.80;23.08;;;;;;;;;;4984459;28;20221;-63
2022/06/06 03:22:55;;;;;;;42.58;22.13;;;;;;;;;;4986276;28;20236;-63
2022/06/06 03:25:23;;;;;;;40.00;22.67;;;;;;;;;;4982996;28;20224;-63
2022/06/06 03:27:51;;;;;;;45.08;23.40;;;;;;;;;;5009576;28;20724;-63
2022/06/06 03:30:19;;;;;;;37.85;22.70;;;;;;;;;;5017884;28;20254;-63
2022/06/06 03:32:49;;;;;;;37.60;22.92;;;;;;;;;;5005247;28;20291;-63
2022/06/06 03:35:24;;;;;;;37.88;23.35;;;;;;;;;;5001976;28;20673;-63
2022/06/06 03:37:55;;;;;;;38.50;22.83;;;;;;;;;;5007610;28;20217;-63
2022/06/06 03:40:26;;;;;;;41.05;23.33;;;;;;;;;;5000283;28;20224;-63
2022/06/06 03:43:00;;;;;;;45.20;24.23;;;;;;;;;;4986493;28;20229;-63
2022/06/06 03:45:33;;;;;;;42.03;25.05;;;;;;;;;;4978062;28;20240;-63
2022/06/06 03:48:02;;;;;;;42.05;23.85;;;;;;;;;;5002926;28;20223;-62
2022/06/06 03:50:27;;;;;;;44.47;24.45;;;;;;;;;;5007980;28;20217;-63
2022/06/06 03:53:00;;;;;;;41.90;24.83;;;;;;;;;;4985453;28;20228;-63
2022/06/06 03:55:26;;;;;;;45.30;24.83;;;;;;;;;;5001131;28;20691;-63
2022/06/06 03:57:53;;;;;;;41.45;24.58;;;;;;;;;;4983872;28;20700;-63
2022/06/06 04:00:18;;;;;;;43.03;24.80;;;;;;;;;;5018165;28;20731;-63
2022/06/06 04:02:44;;;;;;;43.30;24.23;;;;;;;;;;4993415;28;20775;-63
2022/06/06 04:05:11;;;;;;;40.40;24.05;;;;;;;;;;4980012;28;20328;-63
2022/06/06 04:07:36;;;;;;;43.53;23.25;;;;;;;;;;4976992;28;20240;-63
2022/06/06 04:10:02;;;;;;;36.42;21.73;;;;;;;;;;4992742;28;20232;-63
2022/06/06 04:12:30;;;;;;;36.75;21.85;;;;;;;;;;4984583;28;20221;-63
2022/06/06 04:15:07;;;;;;;38.03;22.60;;;;;;;;;;4990503;28;20315;-63
2022/06/06 04:17:43;;;;;;;35.20;20.08;;;;;;;;;;4991893;28;20370;-63
2022/06/06 04:20:23;;;;;;;34.55;19.33;;;;;;;;;;5002853;28;20600;-63
2022/06/06 04:22:52;;;;;;;36.85;20.45;;;;;;;;;;4994769;28;20761;-63
2022/06/06 04:25:36;;;;;;;31.38;19.92;;;;;;;;;;4984975;28;20221;-63
2022/06/06 04:28:01;;;;;;;33.90;20.20;;;;;;;;;;4979607;28;20300;-63
2022/06/06 04:30:27;;;;;;;33.10;19.42;;;;;;;;;;4976302;28;20243;-63
2022/06/06 04:33:01;;;;;;;35.17;20.00;;;;;;;;;;4981217;28;20755;-63
2022/06/06 04:35:26;;;;;;;33.33;20.73;;;;;;;;;;4985084;28;20229;-63
2022/06/06 04:37:57;;;;;;;37.97;21.23;;;;;;;;;;4984036;28;20212;-63
2022/06/06 04:40:37;;;;;;;44.63;25.10;;;;;;;;;;5016626;28;20225;-62
2022/06/06 04:43:17;;;;;;;44.97;27.20;;;;;;;;;;5006393;28;21204;-62
2022/06/06 04:45:45;;;;;;;42.67;26.55;;;;;;;;;;4981271;28;20982;-62
2022/06/06 04:48:10;;;;;;;53.20;28.00;;;;;;;;;;4995138;28;20217;-62
2022/06/06 04:50:36;;;;;;;45.88;27.65;;;;;;;;;;5000668;28;20290;-62
2022/06/06 04:53:03;;;;;;;51.35;29.33;;;;;;;;;;4998867;28;20221;-62
2022/06/06 04:55:29;;;;;;;46.53;27.58;;;;;;;;;;4992448;28;20639;-63
2022/06/06 04:57:55;;;;;;;51.03;28.73;;;;;;;;;;4998138;28;20233;-62
2022/06/06 05:00:21;;;;;;;45.83;27.63;;;;;;;;;;5015933;28;20299;-62
2022/06/06 05:02:46;;;;;;;41.10;25.67;;;;;;;;;;4995549;28;20699;-62
2022/06/06 05:05:11;;;;;;;40.55;25.67;;;;;;;;;;4987681;28;20236;-62
2022/06/06 05:07:37;;;;;;;41.63;25.65;;;;;;;;;;4983049;28;20292;-62
2022/06/06 05:10:21;;;;;;;48.17;26.67;;;;;;;;;;4994835;28;20300;-67
2022/06/06 05:12:54;;;;;;;50.08;23.42;;;;;;;;;;4991403;28;20203;-68
2022/06/06 05:15:24;;;;;;;38.65;25.02;;;;;;;;;;4974850;28;20967;-70
2022/06/06 05:17:53;;;;;;;37.95;24.52;;;;;;;;;;4997633;28;20826;-67
2022/06/06 05:20:21;;;;;;;32.60;23.70;;;;;;;;;;5001434;28;20534;-70
2022/06/06 05:22:51;;;;;;;36.97;27.10;;;;;;;;;;5015240;28;20425;-69
2022/06/06 05:25:30;;;;;;;36.47;24.38;;;;;;;;;;4985506;28;20245;-70
2022/06/06 05:27:56;;;;;;;37.30;25.40;;;;;;;;;;5001322;28;20632;-69
2022/06/06 05:30:25;;;;;;;38.42;24.65;;;;;;;;;;4983317;28;20211;-68
2022/06/06 05:32:52;;;;;;;35.75;22.80;;;;;;;;;;4984371;28;20220;-69
2022/06/06 05:35:18;;;;;;;33.85;23.50;;;;;;;;;;4989749;28;20252;-66
2022/06/06 05:37:52;;;;;;;37.67;23.33;;;;;;;;;;4975070;28;20573;-67
2022/06/06 05:40:20;;;;;;;30.58;21.80;;;;;;;;;;4976094;28;20214;-65
2022/06/06 05:43:01;;;;;;;31.70;22.83;;;;;;;;;;4998259;28;20220;-68
2022/06/06 05:45:42;;;;;;;31.40;21.50;;;;;;;;;;4989526;28;20236;-66
2022/06/06 05:48:11;;;;;;;30.67;20.23;;;;;;;;;;4997180;28;20221;-69
2022/06/06 05:50:37;;;;;;;26.60;18.90;;;;;;;;;;4999884;28;20680;-68
2022/06/06 05:53:03;;;;;;;28.70;19.30;;;;;;;;;;4982000;28;20296;-66
2022/06/06 05:55:33;;;;;;;29.75;19.05;;;;;;;;;;4983340;28;20245;-65
2022/06/06 05:58:01;;;;;;;26.13;18.08;;;;;;;;;;4989795;28;20221;-65
2022/06/06 06:00:42;;;;;;;26.92;18.02;;;;;;;;;;4976971;28;20514;-65
2022/06/06 06:03:17;;;;;;;26.67;17.10;;;;;;;;;;4981646;28;20236;-65
2022/06/06 06:05:52;;;;;;;22.17;15.88;;;;;;;;;;5009119;28;20575;-66
2022/06/06 06:08:23;;;;;;;23.40;14.50;;;;;;;;;;5012206;28;20210;-66
2022/06/06 06:10:52;;;;;;;30.25;12.55;;;;;;;;;;5004020;28;20684;-65
2022/06/06 06:13:21;;;;;;;21.40;12.15;;;;;;;;;;5014728;28;20216;-67
2022/06/06 06:15:47;;;;;;;15.38;10.55;;;;;;;;;;5015427;28;20612;-68
2022/06/06 06:18:22;;;;;;;19.27;10.05;;;;;;;;;;5012444;28;20757;-68
2022/06/06 06:20:49;;;;;;;10.95;7.93;;;;;;;;;;5014776;28;20219;-68
2022/06/06 06:23:19;;;;;;;11.65;7.60;;;;;;;;;;5029724;28;20490;-68
2022/06/06 06:25:44;;;;;;;14.00;8.18;;;;;;;;;;5012771;28;20238;-68
2022/06/06 06:28:10;;;;;;;13.68;8.30;;;;;;;;;;5014277;28;20205;-68
2022/06/06 06:30:54;;;;;;;16.60;7.90;;;;;;;;;;5015149;28;20212;-67
2022/06/06 06:33:22;;;;;;;13.57;9.13;;;;;;;;;;4997767;28;20571;-68
2022/06/06 06:36:01;;;;;;;17.58;9.40;;;;;;;;;;5009261;28;20743;-65
2022/06/06 06:38:34;;;;;;;14.73;9.10;;;;;;;;;;5006713;28;20208;-65
2022/06/06 06:41:04;;;;;;;12.95;8.82;;;;;;;;;;5012670;28;20216;-65
2022/06/06 06:43:32;;;;;;;16.50;8.48;;;;;;;;;;5011663;28;20223;-64
2022/06/06 06:46:00;;;;;;;18.42;10.52;;;;;;;;;;5011001;28;20310;-66
2022/06/06 06:48:30;;;;;;;15.02;11.02;;;;;;;;;;5001731;28;20688;-66
2022/06/06 06:50:57;;;;;;;16.92;11.57;;;;;;;;;;5006949;28;20953;-66
2022/06/06 06:53:26;;;;;;;18.70;12.38;;;;;;;;;;5001496;28;20218;-69
2022/06/06 06:55:54;;;;;;;17.88;11.20;;;;;;;;;;5004264;28;20239;-70
2022/06/06 06:58:42;;;;;;;15.55;10.32;;;;;;;;;;5002719;28;20698;-68
2022/06/06 07:01:08;;;;;;;13.80;8.45;;;;;;;;;;5002646;28;20208;-68
2022/06/06 07:09:24;;;;;;;14.60;6.50;;;;;;;;;;5007453;28;20217;-67
2022/06/06 07:11:49;;;;;;;10.32;5.18;;;;;;;;;;5006860;28;20239;-68
2022/06/06 07:14:16;;;;;;;10.57;5.57;;;;;;;;;;4998454;28;20540;-67
2022/06/06 07:16:41;;;;;;;10.73;5.07;;;;;;;;;;5003558;28;20308;-71
2022/06/06 07:19:07;;;;;;;8.10;5.03;;;;;;;;;;5001496;28;20288;-72
2022/06/06 07:21:33;;;;;;;10.02;5.40;;;;;;;;;;4994064;28;20224;-72
2022/06/06 07:23:59;;;;;;;13.35;6.05;;;;;;;;;;4993047;28;20205;-71
2022/06/06 07:26:24;;;;;;;12.05;6.93;;;;;;;;;;4991395;28;20300;-70
2022/06/06 07:28:50;;;;;;;11.45;6.65;;;;;;;;;;4992743;28;20213;-71
2022/06/06 07:31:17;;;;;;;13.88;6.15;;;;;;;;;;4994678;28;20565;-72
2022/06/06 07:33:47;;;;;;;12.05;7.10;;;;;;;;;;5011565;28;20220;-72
2022/06/06 07:36:17;;;;;;;12.40;6.57;;;;;;;;;;5010042;28;20212;-70
2022/06/06 07:39:06;;;;;;;17.15;7.43;;;;;;;;;;5012558;28;20580;-71
2022/06/06 07:41:31;;;;;;;12.70;7.10;;;;;;;;;;5011580;28;20243;-71
2022/06/06 07:44:20;;;;;;;9.82;6.10;;;;;;;;;;5004679;28;20217;-72
2022/06/06 07:46:55;;;;;;;9.30;5.78;;;;;;;;;;5027070;28;20217;-72
2022/06/06 07:49:22;;;;;;;10.82;5.40;;;;;;;;;;5009985;28;20222;-72
2022/06/06 07:51:50;;;;;;;9.65;5.60;;;;;;;;;;5012423;28;20220;-71
2022/06/06 07:54:22;;;;;;;8.88;4.80;;;;;;;;;;5011895;28;20235;-71
2022/06/06 07:57:08;;;;;;;6.78;4.10;;;;;;;;;;4963848;28;1193988;-71
2022/06/06 07:59:37;;;;;;;7.68;4.65;;;;;;;;;;5028051;28;20235;-71
2022/06/06 08:02:22;;;;;;;8.95;4.20;;;;;;;;;;5027850;28;20212;-72
2022/06/06 08:04:53;;;;;;;7.63;4.10;;;;;;;;;;5013501;28;20307;-72
2022/06/06 08:07:38;;;;;;;8.45;4.35;;;;;;;;;;5011042;28;20212;-71
2022/06/06 08:10:16;;;;;;;7.70;3.70;;;;;;;;;;5010430;28;20304;-72
2022/06/06 08:12:55;;;;;;;5.55;3.00;;;;;;;;;;5028445;28;20676;-72
2022/06/06 08:15:22;;;;;;;7.57;3.05;;;;;;;;;;5027610;28;20305;-72
2022/06/06 08:17:53;;;;;;;6.15;2.88;;;;;;;;;;5010284;28;20227;-73
2022/06/06 08:20:20;;;;;;;6.50;2.40;;;;;;;;;;5027280;28;20596;-72
2022/06/06 08:22:46;;;;;;;4.68;2.35;;;;;;;;;;5011386;28;20209;-72
2022/06/06 08:25:13;;;;;;;4.88;1.70;;;;;;;;;;5011132;28;20235;-72
2022/06/06 08:27:40;;;;;;;4.15;1.63;;;;;;;;;;5027768;28;20568;-71
2022/06/06 08:30:06;;;;;;;4.97;1.75;;;;;;;;;;5012325;28;20216;-70
2022/06/06 08:32:31;;;;;;;4.30;1.80;;;;;;;;;;5010244;28;20235;-73
2022/06/06 08:34:57;;;;;;;5.15;2.17;;;;;;;;;;5012576;28;20251;-72
2022/06/06 08:37:34;;;;;;;4.80;2.03;;;;;;;;;;5011466;28;20312;-71
2022/06/06 08:40:16;;;;;;;4.40;2.30;;;;;;;;;;5027866;28;20208;-71
2022/06/06 08:42:48;;;;;;;6.38;2.80;;;;;;;;;;4992679;28;20217;-71
2022/06/06 08:45:21;;;;;;;4.25;2.65;;;;;;;;;;5001575;28;20231;-72
2022/06/06 08:47:55;;;;;;;7.47;2.40;;;;;;;;;;5011864;28;20234;-72
2022/06/06 08:53:14;;;;;;;5.18;2.67;;;;;;;;;;5023939;28;20216;-72
2022/06/06 08:55:59;;;;;;;6.40;2.30;;;;;;;;;;5027370;28;20212;-73
2022/06/06 08:58:32;;;;;;;5.50;2.80;;;;;;;;;;5010956;28;20232;-72
2022/06/06 09:01:18;;;;;;;3.40;2.13;;;;;;;;;;5026878;28;20263;-74
2022/06/06 09:03:52;;;;;;;5.90;2.20;;;;;;;;;;5010315;28;20212;-73
2022/06/06 09:06:18;;;;;;;3.92;1.60;;;;;;;;;;5009293;28;20620;-72
2022/06/06 09:08:51;;;;;;;3.42;1.70;;;;;;;;;;5011660;28;20216;-74
2022/06/06 09:11:40;;;;;;;5.00;1.90;;;;;;;;;;5011808;28;20216;-73
2022/06/06 09:14:06;;;;;;;14.88;2.60;;;;;;;;;;5025993;28;20234;-70
2022/06/06 09:16:33;;;;;;;5.20;1.80;;;;;;;;;;5011730;28;20217;-72
2022/06/06 09:19:17;;;;;;;5.25;1.85;;;;;;;;;;5011152;28;20220;-72
2022/06/06 09:21:47;;;;;;;4.35;1.60;;;;;;;;;;5010889;28;20229;-72
2022/06/06 09:24:18;;;;;;;4.75;1.70;;;;;;;;;;5026611;28;20248;-72
2022/06/06 09:26:45;;;;;;;4.38;1.77;;;;;;;;;;5011206;28;20259;-72
2022/06/06 09:29:26;;;;;;;4.85;1.50;;;;;;;;;;5010950;28;20263;-73
2022/06/06 09:32:11;;;;;;;4.85;1.30;;;;;;;;;;5010300;28;20596;-73
2022/06/06 09:34:53;;;;;;;5.07;1.10;;;;;;;;;;5009556;28;20212;-71
2022/06/06 09:37:26;;;;;;;2.53;1.10;;;;;;;;;;5010322;28;20311;-71
2022/06/06 09:39:58;;;;;;;6.25;1.10;;;;;;;;;;5011454;28;20219;-72
2022/06/06 09:42:24;;;;;;;8.88;1.40;;;;;;;;;;5010431;28;20212;-72
2022/06/06 09:44:52;;;;;;;6.35;1.45;;;;;;;;;;5011678;28;20232;-72
2022/06/06 09:47:28;;;;;;;2.72;1.10;;;;;;;;;;5010945;28;20231;-72
2022/06/06 09:50:06;;;;;;;2.90;1.27;;;;;;;;;;5010492;28;20220;-73
2022/06/06 09:52:40;;;;;;;6.00;1.10;;;;;;;;;;5009691;28;20703;-72
2022/06/06 10:00:52;;;;;;;4.45;1.42;;;;;;;;;;5010781;28;20255;-73
2022/06/06 10:03:24;;;;;;;4.28;1.80;;;;;;;;;;5025536;28;20223;-72
2022/06/06 10:05:59;;;;;;;4.97;1.42;;;;;;;;;;5011417;28;20322;-72
2022/06/06 10:08:43;;;;;;;5.18;1.73;;;;;;;;;;5010502;28;20208;-70
2022/06/06 10:11:14;;;;;;;4.18;1.60;;;;;;;;;;5009396;28;20224;-73
2022/06/06 10:13:58;;;;;;;5.03;1.83;;;;;;;;;;5011374;28;20217;-72
2022/06/06 10:16:34;;;;;;;6.00;1.52;;;;;;;;;;5009373;28;20243;-72
2022/06/06 10:19:13;;;;;;;6.03;1.83;;;;;;;;;;5009323;28;20703;-71
2022/06/06 10:21:50;;;;;;;2.58;1.50;;;;;;;;;;5025935;28;20699;-72
2022/06/06 10:24:34;;;;;;;3.83;1.92;;;;;;;;;;5008740;28;20224;-71
2022/06/06 10:27:19;;;;;;;2.47;1.58;;;;;;;;;;5011347;28;20228;-72
2022/06/06 10:30:11;;;;;;;3.22;1.42;;;;;;;;;;5010337;28;20578;-74
2022/06/06 10:32:45;;;;;;;4.63;1.70;;;;;;;;;;5024617;28;20213;-72
2022/06/06 10:35:18;;;;;;;4.35;1.50;;;;;;;;;;5010819;28;20220;-69
2022/06/06 10:37:46;;;;;;;4.13;1.60;;;;;;;;;;5010183;28;20224;-72
2022/06/06 10:40:25;;;;;;;3.58;1.33;;;;;;;;;;5010088;28;20217;-73
2022/06/06 10:42:57;;;;;;;3.58;1.40;;;;;;;;;;4992422;28;20217;-72
2022/06/06 10:45:29;;;;;;;3.65;1.58;;;;;;;;;;5005404;28;20279;-72
2022/06/06 10:48:04;;;;;;;3.17;1.60;;;;;;;;;;5010778;28;20294;-69
2022/06/06 10:50:31;;;;;;;3.53;1.65;;;;;;;;;;5012228;28;20234;-71
2022/06/06 10:53:15;;;;;;;5.60;1.83;;;;;;;;;;5013881;28;20354;-71
2022/06/06 10:55:48;;;;;;;4.63;1.92;;;;;;;;;;5013005;28;20216;-71
2022/06/06 10:58:19;;;;;;;7.70;2.40;;;;;;;;;;5013442;28;20275;-71
2022/06/06 11:00:50;;;;;;;7.25;2.65;;;;;;;;;;4998618;28;20247;-70
2022/06/06 11:03:26;;;;;;;5.63;3.08;;;;;;;;;;5013777;28;20299;-70
2022/06/06 11:05:58;;;;;;;7.47;2.80;;;;;;;;;;5013353;28;20239;-72
2022/06/06 11:08:37;;;;;;;6.10;2.53;;;;;;;;;;5012871;28;20236;-70
2022/06/06 11:11:09;;;;;;;4.88;2.20;;;;;;;;;;5028289;28;20585;-70
2022/06/06 11:13:43;;;;;;;7.88;2.90;;;;;;;;;;5013492;28;20213;-71
2022/06/06 11:16:20;;;;;;;6.50;2.63;;;;;;;;;;5011078;28;20263;-69
2022/06/06 11:18:45;;;;;;;6.28;2.70;;;;;;;;;;4994739;28;20213;-72
2022/06/06 11:21:16;;;;;;;5.95;2.80;;;;;;;;;;5010492;28;20201;-69
2022/06/06 11:23:45;;;;;;;7.05;2.67;;;;;;;;;;5012493;28;20228;-69
2022/06/06 11:26:23;;;;;;;8.65;2.50;;;;;;;;;;5011947;28;20289;-69
2022/06/06 11:29:00;;;;;;;5.10;2.50;;;;;;;;;;5013933;28;20216;-70
2022/06/06 11:31:39;;;;;;;5.10;2.47;;;;;;;;;;5028335;28;20208;-70
2022/06/06 11:34:16;;;;;;;4.22;2.30;;;;;;;;;;5011209;28;20223;-71
2022/06/06 11:36:42;;;;;;;6.28;2.60;;;;;;;;;;5013605;28;20743;-71
2022/06/06 11:39:07;;;;;;;8.23;2.40;;;;;;;;;;5013102;28;20221;-72
2022/06/06 11:41:51;;;;;;;7.07;2.40;;;;;;;;;;5012488;28;20580;-73
2022/06/06 11:44:34;;;;;;;7.05;2.10;;;;;;;;;;5011948;28;20224;-72
2022/06/06 11:47:14;;;;;;;5.13;2.35;;;;;;;;;;5013422;28;20303;-71
2022/06/06 11:50:01;;;;;;;5.43;1.90;;;;;;;;;;5027736;28;20219;-71
2022/06/06 11:52:46;;;;;;;3.45;1.85;;;;;;;;;;5011563;28;20275;-71
2022/06/06 11:55:17;;;;;;;4.45;1.60;;;;;;;;;;5029650;28;20214;-70
2022/06/06 11:57:43;;;;;;;5.50;1.77;;;;;;;;;;5013163;28;20336;-69
2022/06/06 12:00:15;;;;;;;3.83;1.65;;;;;;;;;;5011729;28;20790;-70
2022/06/06 12:02:40;;;;;;;4.55;1.40;;;;;;;;;;5000422;28;20412;-69
2022/06/06 12:05:06;;;;;;;4.72;1.75;;;;;;;;;;5010072;28;20221;-70
2022/06/06 12:07:50;;;;;;;13.20;2.05;;;;;;;;;;5012840;28;20248;-70
2022/06/06 12:10:23;;;;;;;3.63;1.38;;;;;;;;;;5011422;28;20225;-70
2022/06/06 12:12:52;;;;;;;6.05;1.55;;;;;;;;;;5012890;28;20225;-70
2022/06/06 12:15:22;;;;;;;3.60;1.50;;;;;;;;;;5027830;28;20232;-71
2022/06/06 12:18:00;;;;;;;2.97;1.40;;;;;;;;;;5010695;28;20274;-73
2022/06/06 12:20:26;;;;;;;4.90;1.60;;;;;;;;;;5011468;28;20246;-70
2022/06/06 12:22:55;;;;;;;3.38;1.33;;;;;;;;;;5011501;28;20224;-72
2022/06/06 12:25:34;;;;;;;6.07;1.23;;;;;;;;;;5012277;28;20274;-70
2022/06/06 12:28:02;;;;;;;4.15;1.38;;;;;;;;;;5012994;28;20212;-70
2022/06/06 12:30:30;;;;;;;7.95;1.35;;;;;;;;;;5011387;28;20216;-69
2022/06/06 12:32:55;;;;;;;5.60;1.50;;;;;;;;;;5010495;28;20275;-71
2022/06/06 12:35:21;;;;;;;3.45;1.30;;;;;;;;;;5012233;28;20606;-70
2022/06/06 12:37:46;;;;;;;8.10;1.35;;;;;;;;;;5004255;28;20700;-72
2022/06/06 12:40:16;;;;;;;2.50;1.20;;;;;;;;;;4994171;28;20221;-70
2022/06/06 12:42:43;;;;;;;8.63;1.33;;;;;;;;;;5010917;28;20227;-71
2022/06/06 12:45:30;;;;;;;3.65;1.20;;;;;;;;;;5009383;28;20249;-71
2022/06/06 12:48:02;;;;;;;2.53;1.10;;;;;;;;;;4994674;28;20216;-70
2022/06/06 12:50:35;;;;;;;7.05;1.65;;;;;;;;;;5011871;28;20212;-70
2022/06/06 12:53:10;;;;;;;4.30;1.48;;;;;;;;;;5002242;28;20251;-70
2022/06/06 12:56:15;;;;;;;4.82;1.60;;;;;;;;;;5012036;28;20216;-71
2022/06/06 12:58:35;;;;;;;3.38;1.52;;;;;;;;;;5009773;28;20229;-70
2022/06/06 13:03:57;;;;;;;6.15;1.92;;;;;;;;;;5010653;28;20258;-70
2022/06/06 13:06:28;;;;;;;6.40;2.00;;;;;;;;;;5009681;28;20657;-70
2022/06/06 13:08:56;;;;;;;6.70;2.20;;;;;;;;;;5012011;28;20219;-70
2022/06/06 13:11:38;;;;;;;3.90;1.80;;;;;;;;;;5011450;28;20667;-70
2022/06/06 13:14:11;;;;;;;3.00;1.83;;;;;;;;;;5030954;28;20559;-66
2022/06/06 13:16:49;;;;;;;8.65;2.10;;;;;;;;;;5017536;28;20216;-71
2022/06/06 13:19:23;;;;;;;7.30;1.98;;;;;;;;;;4989793;28;20224;-71
2022/06/06 13:21:54;;;;;;;6.90;1.90;;;;;;;;;;5007593;28;20205;-72
2022/06/06 13:24:19;;;;;;;4.10;1.63;;;;;;;;;;4998265;28;20589;-70
2022/06/06 13:26:47;;;;;;;5.55;1.60;;;;;;;;;;5011225;28;20295;-70
2022/06/06 13:29:25;;;;;;;4.63;1.60;;;;;;;;;;5011108;28;20243;-70
2022/06/06 13:31:53;;;;;;;6.95;1.80;;;;;;;;;;5011322;28;20239;-69
2022/06/06 13:34:20;;;;;;;5.13;2.03;;;;;;;;;;5010351;28;20332;-70
2022/06/06 13:36:45;;;;;;;15.57;2.30;;;;;;;;;;5011779;28;20296;-71
2022/06/06 13:39:16;;;;;;;4.13;1.42;;;;;;;;;;5011109;28;20653;-70
2022/06/06 13:41:46;;;;;;;3.28;1.33;;;;;;;;;;5009625;28;20278;-70
2022/06/06 13:44:13;;;;;;;4.82;1.50;;;;;;;;;;5010501;28;20219;-70
2022/06/06 13:46:48;;;;;;;4.07;1.30;;;;;;;;;;5011057;28;20282;-70
2022/06/06 13:49:24;;;;;;;4.32;1.20;;;;;;;;;;5009320;28;20216;-70
2022/06/06 13:51:57;;;;;;;3.88;1.40;;;;;;;;;;5026959;28;20212;-70
2022/06/06 13:54:26;;;;;;;7.25;1.40;;;;;;;;;;5009864;28;20212;-71
2022/06/06 13:56:56;;;;;;;3.35;1.27;;;;;;;;;;5010183;28;20302;-71
2022/06/06 13:59:22;;;;;;;6.05;1.45;;;;;;;;;;5010508;28;20230;-70
2022/06/06 14:02:01;;;;;;;6.00;1.30;;;;;;;;;;5010538;28;20216;-71
2022/06/06 14:04:30;;;;;;;3.55;1.27;;;;;;;;;;5026013;28;20252;-72
2022/06/06 14:07:08;;;;;;;6.82;1.42;;;;;;;;;;5011111;28;20224;-70
2022/06/06 14:09:34;;;;;;;4.45;1.35;;;;;;;;;;5008450;28;20240;-70
2022/06/06 14:12:10;;;;;;;3.42;1.27;;;;;;;;;;5011365;28;20212;-71
2022/06/06 14:14:35;;;;;;;3.47;1.15;;;;;;;;;;5026360;28;20278;-70
2022/06/06 14:17:02;;;;;;;5.60;1.67;;;;;;;;;;5009958;28;20671;-69
2022/06/06 14:19:29;;;;;;;5.38;1.23;;;;;;;;;;4994687;28;20248;-71
2022/06/06 14:21:57;;;;;;;4.65;1.42;;;;;;;;;;5009935;28;20213;-71
2022/06/06 14:24:23;;;;;;;3.60;1.20;;;;;;;;;;5013515;28;20279;-71
2022/06/06 14:26:50;;;;;;;4.38;1.50;;;;;;;;;;5030132;28;20216;-70
2022/06/06 14:29:22;;;;;;;3.38;1.48;;;;;;;;;;5028617;28;20285;-70
2022/06/06 14:31:48;;;;;;;5.45;2.00;;;;;;;;;;5014474;28;20270;-67
2022/06/06 14:34:21;;;;;;;9.05;1.80;;;;;;;;;;5012991;28;20251;-66
2022/06/06 14:36:55;;;;;;;6.80;1.88;;;;;;;;;;5013564;28;20275;-66
2022/06/06 14:39:22;;;;;;;3.65;1.80;;;;;;;;;;5013094;28;20230;-67
2022/06/06 14:41:47;;;;;;;4.18;1.80;;;;;;;;;;5014956;28;20216;-67
2022/06/06 14:44:12;;;;;;;6.03;1.95;;;;;;;;;;5011977;28;20221;-67
2022/06/06 14:46:45;;;;;;;6.20;2.10;;;;;;;;;;5012655;28;20213;-68
2022/06/06 14:49:10;;;;;;;3.47;2.00;;;;;;;;;;4994495;28;20700;-69
2022/06/06 14:51:37;;;;;;;8.32;2.25;;;;;;;;;;5025020;28;20220;-69
2022/06/06 14:54:04;;;;;;;7.00;2.58;;;;;;;;;;5013134;28;20220;-67
2022/06/06 14:56:34;;;;;;;7.50;2.55;;;;;;;;;;5014103;28;20216;-69
2022/06/06 14:59:06;;;;;;;6.65;2.63;;;;;;;;;;5013327;28;20205;-68
2022/06/06 15:01:31;;;;;;;6.43;2.40;;;;;;;;;;5009947;28;20224;-69
2022/06/06 15:04:00;;;;;;;7.00;2.10;;;;;;;;;;4997073;28;20570;-69
2022/06/06 15:06:27;;;;;;;10.32;2.70;;;;;;;;;;4986049;28;20224;-68
2022/06/06 15:08:53;;;;;;;7.80;2.22;;;;;;;;;;5006308;28;20263;-68
2022/06/06 15:11:19;;;;;;;5.53;2.20;;;;;;;;;;4993284;28;20315;-69
2022/06/06 15:13:46;;;;;;;6.88;2.22;;;;;;;;;;4986882;28;20220;-69
2022/06/06 15:16:12;;;;;;;5.07;2.35;;;;;;;;;;4989199;28;20287;-68
2022/06/06 15:18:40;;;;;;;7.40;2.33;;;;;;;;;;4987303;28;20706;-70